Latest Weather Observations for Green Cape

IDN60801

Issued at 7:35 pm EST Sunday 21 September 2014 (issued every 30 minutes, with the page automatically refreshed every 10 minutes)

About weather observations | Map of weather stations | Latest weather observations for NSW | Other Formats
Station Details ID: 069137 Name: GREEN CAPE AWS Lat: -37.26 Lon: 150.05 Height: 19.4 m
Data from the previous 72 hours. | See also: Recent months at Green Cape
Date/Time
EST
Temp
°C
App
Temp
°C
Dew
Point
Rel
Hum
%
Delta-T
°C
Wind Press
QNH
hPa
Press
MSL
hPa
Rain
since 9 am
mm
Dir
 
Spd
km/h
Gust
km/h
Spd
kts
Gust
kts
21/07:30pm 12.7 9.1 8.2 74 2.2 WSW 17 22 9 12 1030.3 1030.3 0.0
21/07:00pm 12.9 6.5 8.6 75 2.1 SSW 32 41 17 22 1029.9 1029.9 0.0
21/06:30pm 12.9 5.6 8.6 75 2.1 SSW 37 43 20 23 1029.4 1029.4 0.0
21/06:00pm 13.2 4.7 8.7 74 2.2 S 43 48 23 26 1029.0 1029.0 0.0
21/05:30pm 13.6 4.6 8.9 73 2.4 S 46 50 25 27 1028.5 1028.5 0.0
21/05:00pm 13.7 5.1 8.7 72 2.5 S 44 52 24 28 1028.1 1028.1 0.0
21/04:30pm 14.4 5.8 9.0 70 2.7 S 44 50 24 27 1027.9 1027.9 0.0
21/04:00pm 14.7 6.2 9.1 69 2.8 S 44 50 24 27 1027.8 1027.8 0.0
21/03:30pm 15.0 7.4 9.1 68 3.0 S 39 44 21 24 1027.6 1027.6 0.0
21/03:00pm 15.5 8.7 9.4 67 3.1 S 35 41 19 22 1027.7 1027.7 0.0
21/02:30pm 15.2 7.6 8.9 66 3.2 S 39 43 21 23 1027.7 1027.7 0.0
21/02:00pm 16.1 9.1 9.8 66 3.3 S 37 43 20 23 1028.0 1028.0 0.0
21/01:44pm 16.1 9.2 8.8 62 3.7 S 35 39 19 21 1028.1 1028.1 0.0
21/01:30pm 17.3 13.7 8.4 56 4.6 S 17 20 9 11 1028.4 1028.4 0.0
21/01:00pm 17.3 14.7 9.2 59 4.2 S 13 17 7 9 1028.7 1028.7 0.0
21/12:30pm 16.9 14.0 8.1 56 4.5 SSW 13 19 7 10 1029.8 1029.8 0.0
21/12:00pm 16.3 12.9 7.5 56 4.4 SW 15 20 8 11 1029.2 1029.2 0.0
21/11:30am 16.2 13.1 7.4 56 4.4 WSW 13 20 7 11 1029.6 1029.6 0.0
21/11:00am 16.2 14.4 7.9 58 4.1 SW 7 13 4 7 1029.7 1029.7 0.0
21/10:30am 15.4 11.6 7.4 59 4.0 W 17 28 9 15 1030.1 1030.1 0.0
21/10:00am 14.7 10.9 7.5 62 3.5 WSW 17 22 9 12 1030.0 1030.0 0.0
21/09:30am 13.8 8.5 6.9 63 3.3 W 24 30 13 16 1030.0 1030.0 0.0
21/09:00am 13.4 7.4 7.2 66 3.0 W 28 35 15 19 1030.2 1030.2 0.0
21/08:30am 12.9 6.8 6.7 66 3.0 WSW 28 39 15 21 1030.0 1030.0 0.0
21/08:00am 12.5 6.9 7.0 69 2.6 WSW 26 33 14 18 1029.8 1029.8 0.0
21/07:30am 12.1 5.7 6.8 70 2.5 W 30 35 16 19 1029.5 1029.5 0.0
21/07:00am 11.6 5.2 6.9 73 2.2 WSW 30 37 16 20 1029.4 1029.4 0.0
21/06:30am 11.4 3.6 6.7 73 2.2 WSW 37 46 20 25 1029.2 1029.2 0.0
21/06:00am 11.2 5.3 7.3 77 1.9 WSW 28 37 15 20 1028.9 1028.9 0.0
21/05:30am 11.2 5.3 7.3 77 1.9 WSW 28 33 15 18 1028.5 1028.5 0.0
21/05:00am 11.1 6.8 7.8 80 1.6 WSW 20 32 11 17 1028.0 1028.0 0.0
21/04:30am 11.2 6.9 7.7 79 1.7 W 20 24 11 13 1027.7 1027.7 0.0
21/04:00am 11.7 5.9 7.8 77 1.9 WSW 28 33 15 18 1027.3 1027.3 0.0
21/03:30am 11.6 6.3 8.6 82 1.5 W 26 33 14 18 1027.2 1027.2 0.0
21/03:00am 11.6 6.3 8.5 81 1.5 W 26 30 14 16 1027.3 1027.3 0.0
21/02:30am 11.9 6.3 8.6 80 1.6 WSW 28 35 15 19 1027.4 1027.4 0.0
21/02:00am 11.7 6.8 8.6 81 1.5 W 24 30 13 16 1027.6 1027.6 0.0
21/01:30am 11.9 5.5 8.7 81 1.6 WSW 32 37 17 20 1028.0 1028.0 0.0
21/01:00am 11.9 6.4 9.1 83 1.4 WSW 28 33 15 18 1028.2 1028.2 0.0
21/12:30am 11.6 6.8 9.0 84 1.3 WSW 24 28 13 15 1028.2 1028.2 0.0
21/12:00am 11.4 7.5 8.6 83 1.4 W 19 22 10 12 1028.3 1028.3 0.0
 
Date/Time
EST
Temp
°C
App
Temp
°C
Dew
Point
Rel
Hum
%
Delta-T
°C
Wind Press
QNH
hPa
Press
MSL
hPa
Rain
since 9 am
mm
Dir
 
Spd
km/h
Gust
km/h
Spd
kts
Gust
kts
20/11:30pm 11.8 8.3 8.8 82 1.5 WSW 17 20 9 11 1028.4 1028.4 0.0
20/11:00pm 12.1 7.8 9.3 83 1.4 W 22 28 12 15 1028.6 1028.6 0.0
20/10:30pm 12.1 8.3 9.1 82 1.5 W 19 24 10 13 1028.6 1028.6 0.0
20/10:00pm 12.3 7.9 9.0 80 1.6 WSW 22 30 12 16 1028.6 1028.6 0.0
20/09:30pm 12.4 6.8 8.9 79 1.8 WSW 28 35 15 19 1028.4 1028.4 0.0
20/09:00pm 12.7 7.4 8.4 75 2.1 WSW 26 32 14 17 1028.3 1028.3 0.0
20/08:30pm 12.8 7.9 8.3 74 2.2 WSW 24 28 13 15 1028.1 1028.1 0.0
20/08:00pm 13.0 8.4 8.1 72 2.4 WSW 22 30 12 16 1027.8 1027.8 0.0
20/07:30pm 13.2 8.7 8.5 73 2.3 WSW 22 30 12 16 1027.5 1027.5 0.0
20/07:00pm 13.4 9.0 9.1 75 2.2 SSW 22 26 12 14 1027.1 1027.1 0.0
20/06:30pm 13.6 7.7 9.1 74 2.3 SSW 30 33 16 18 1026.5 1026.5 0.0
20/06:00pm 13.7 7.3 9.2 74 2.3 SW 33 39 18 21 1026.0 1026.0 0.0
20/05:30pm 13.9 7.4 9.1 73 2.4 SSW 33 37 18 20 1025.5 1025.5 0.0
20/05:00pm 14.4 7.9 9.0 70 2.7 SSW 33 39 18 21 1025.2 1025.2 0.0
20/04:30pm 14.6 8.2 9.2 70 2.8 SSW 33 48 18 26 1024.7 1024.7 0.0
20/04:00pm 15.3 8.2 8.1 62 3.6 SW 35 43 19 23 1024.5 1024.5 0.0
20/03:30pm 15.6 8.6 8.4 62 3.6 SSW 35 43 19 23 1024.2 1024.2 0.0
20/03:00pm 15.8 8.6 7.6 58 4.1 SW 35 43 19 23 1024.2 1024.2 0.0
20/02:45pm 15.9 9.5 8.6 62 3.7 SW 32 33 17 18 1024.1 1024.1 0.0
20/02:30pm 16.0 8.6 8.5 61 3.8 WSW 37 43 20 23 1024.1 1024.1 0.0
20/02:00pm 16.0 9.4 8.5 61 3.8 WSW 33 41 18 22 1023.9 1023.9 0.0
20/01:30pm 16.1 9.7 8.6 61 3.8 WSW 32 39 17 21 1024.0 1024.0 0.0
20/01:00pm 15.4 8.0 8.2 62 3.6 SW 37 44 20 24 1023.8 1023.8 0.0
20/12:30pm 15.7 9.3 8.4 62 3.7 SW 32 41 17 22 1024.2 1024.2 0.0
20/12:00pm 14.7 8.3 8.6 67 3.1 SW 32 41 17 22 1024.3 1024.3 0.0
20/11:30am 14.8 7.8 8.5 66 3.2 SW 35 48 19 26 1024.5 1024.5 0.0
20/11:13am 14.5 7.1 8.2 66 3.2 WSW 37 57 20 31 1024.5 1024.5 0.0
20/11:00am 14.7 5.9 8.0 64 3.3 WSW 44 56 24 30 1024.3 1024.3 0.0
20/10:30am 14.2 5.0 8.2 67 3.0 WSW 46 57 25 31 1024.3 1024.3 0.0
20/10:00am 14.1 5.8 7.9 66 3.1 WSW 41 50 22 27 1024.1 1024.1 0.0
20/09:30am 13.6 3.9 7.6 67 2.9 WSW 48 57 26 31 1024.1 1024.1 0.0
20/09:00am 13.3 5.3 7.5 68 2.8 WSW 39 48 21 26 1024.1 1024.1 0.0
20/08:30am 13.0 5.4 7.7 70 2.6 WSW 37 44 20 24 1023.9 1023.9 0.0
20/08:00am 12.8 3.9 7.5 70 2.6 WSW 44 57 24 31 1023.4 1023.4 0.0
20/07:30am 12.6 3.6 7.1 69 2.7 WSW 44 56 24 30 1023.6 1023.6 0.0
20/07:00am 12.2 4.5 6.9 70 2.5 WSW 37 50 20 27 1023.2 1023.2 0.0
20/06:30am 12.1 4.0 6.8 70 2.5 WSW 39 52 21 28 1022.9 1022.9 0.0
20/06:00am 11.9 3.7 6.6 70 2.5 WSW 39 50 21 27 1022.5 1022.5 0.0
20/05:30am 12.0 3.8 6.7 70 2.5 WSW 39 48 21 26 1022.3 1022.3 0.0
20/05:00am 11.8 4.0 6.5 70 2.5 W 37 46 20 25 1022.0 1022.0 0.0
20/04:30am 11.9 3.0 6.8 71 2.4 WSW 43 52 23 28 1021.3 1021.3 0.0
20/04:00am 11.8 2.9 6.7 71 2.4 WSW 43 52 23 28 1021.2 1021.2 0.0
20/03:30am 11.9 3.8 7.0 72 2.3 W 39 50 21 27 1021.1 1021.1 0.0
20/03:00am 11.8 4.0 6.5 70 2.5 W 37 46 20 25 1021.1 1021.1 0.0
20/02:30am 11.8 3.2 6.5 70 2.5 W 41 54 22 29 1021.0 1021.0 0.0
20/02:06am 11.9 4.1 6.6 70 2.5 W 37 56 20 30 1021.2 1021.2 0.0
20/02:00am 11.9 4.1 6.6 70 2.5 WSW 37 44 20 24 1021.3 1021.3 0.0
20/01:30am 11.8 4.7 6.5 70 2.5 WSW 33 46 18 25 1021.5 1021.5 0.0
20/01:00am 11.9 5.0 6.4 69 2.6 SW 32 41 17 22 1021.4 1021.4 0.0
20/12:30am 12.2 5.4 7.1 71 2.5 WSW 32 44 17 24 1021.3 1021.3 0.0
20/12:00am 12.4 5.6 7.7 73 2.3 WSW 33 39 18 21 1021.0 1021.0 0.0
 
Date/Time
EST
Temp
°C
App
Temp
°C
Dew
Point
Rel
Hum
%
Delta-T
°C
Wind Press
QNH
hPa
Press
MSL
hPa
Rain
since 9 am
mm
Dir
 
Spd
km/h
Gust
km/h
Spd
kts
Gust
kts
19/11:30pm 12.4 6.9 7.7 73 2.3 WSW 26 35 14 19 1021.0 1021.0 0.0
19/11:00pm 12.5 5.3 7.8 73 2.3 SW 35 43 19 23 1020.8 1020.8 0.0
19/10:30pm 12.7 5.2 8.0 73 2.3 WSW 37 48 20 26 1020.8 1020.8 0.0
19/10:00pm 12.6 6.0 7.9 73 2.3 WSW 32 39 17 21 1020.8 1020.8 0.0
19/09:30pm 12.7 5.2 7.8 72 2.4 WSW 37 48 20 26 1020.8 1020.8 0.0
19/09:00pm 13.0 6.3 8.1 72 2.4 WSW 33 43 18 23 1020.9 1020.9 0.0
19/08:30pm 12.8 6.2 7.7 71 2.5 WSW 32 43 17 23 1021.0 1021.0 0.0
19/08:00pm 12.9 6.7 7.8 71 2.5 WSW 30 37 16 20 1021.0 1021.0 0.0
19/07:30pm 13.0 6.4 7.9 71 2.5 SW 32 37 17 20 1020.8 1020.8 0.0
19/07:00pm 13.2 6.4 7.6 69 2.7 SW 33 41 18 22 1020.4 1020.4 0.0
19/06:30pm 13.4 6.1 7.4 67 2.9 SW 35 43 19 23 1020.1 1020.1 0.0
19/06:00pm 13.7 6.0 7.0 64 3.2 WSW 37 48 20 26 1019.9 1019.9 0.0
19/05:30pm 14.0 5.6 7.3 64 3.3 WSW 41 54 22 29 1019.5 1019.5 0.0
19/05:00pm 14.6 6.8 6.7 59 3.8 WSW 37 43 20 23 1019.3 1019.3 0.0
19/04:30pm 14.7 5.8 6.8 59 3.8 SW 43 56 23 30 1019.0 1019.0 0.0
19/04:00pm 15.1 6.5 6.4 56 4.2 SW 41 56 22 30 1018.6 1018.6 0.0
19/03:30pm 15.5 7.4 7.0 57 4.2 WSW 39 46 21 25 1018.6 1018.6 0.0
19/03:00pm 15.4 6.8 6.4 55 4.4 SW 41 56 22 30 1018.5 1018.5 0.0
19/02:42pm 15.5 6.2 6.0 53 4.6 WSW 44 67 24 36 1018.3 1018.3 0.0
19/02:30pm 15.6 5.6 6.3 54 4.5 WSW 48 59 26 32 1018.5 1018.5 0.0
19/02:00pm 15.0 5.9 5.8 54 4.4 WSW 43 65 23 35 1018.5 1018.5 0.0
19/01:30pm 14.8 5.0 6.9 59 3.9 WSW 48 57 26 31 1018.8 1018.8 0.0
19/01:21pm 14.9 7.1 6.5 57 4.1 SW 37 46 20 25 1018.8 1018.8 0.0
19/01:00pm 15.4 7.2 6.7 56 4.2 WSW 39 52 21 28 1019.0 1019.0 0.0
19/12:33pm 15.2 7.0 6.5 56 4.2 WSW 39 57 21 31 1019.5 1019.5 0.0
19/12:30pm 15.2 6.6 6.5 56 4.2 WSW 41 54 22 29 1019.4 1019.4 0.0
19/12:00pm 14.8 6.3 6.9 59 3.8 WSW 41 54 22 29 1019.8 1019.8 0.0
19/11:30am 14.4 6.0 5.7 56 4.1 WSW 39 56 21 30 1020.2 1020.2 0.0
19/11:04am 14.7 7.3 6.8 59 3.8 WSW 35 56 19 30 1020.0 1020.0 0.0
19/11:00am 14.3 7.2 6.2 58 3.9 WSW 33 43 18 23 1020.2 1020.2 0.0
19/10:30am 14.3 6.4 6.4 59 3.8 WSW 37 50 20 27 1020.2 1020.2 0.0
19/10:00am 13.9 5.7 6.7 62 3.5 WSW 39 48 21 26 1020.5 1020.5 0.0
19/09:30am 13.5 5.3 6.4 62 3.4 WSW 39 48 21 26 1020.5 1020.5 0.0
19/09:00am 13.1 4.4 6.2 63 3.3 W 41 46 22 25 1020.4 1020.4 0.0
19/08:30am 12.5 4.5 5.7 63 3.2 WSW 37 48 20 26 1020.4 1020.4 0.0
19/08:00am 11.9 3.4 5.3 64 3.0 W 39 52 21 28 1020.3 1020.3 0.0
19/07:30am 11.4 2.8 4.8 64 3.0 W 39 46 21 25 1020.2 1020.2 0.0
19/07:00am 10.9 2.6 4.1 63 3.0 W 37 52 20 28 1020.2 1020.2 0.0
19/06:30am 10.6 3.3 4.3 65 2.8 W 32 41 17 22 1020.2 1020.2 0.0
19/06:00am 10.7 2.1 4.4 65 2.8 W 39 48 21 26 1019.8 1019.8 0.0
19/05:30am 10.5 2.6 4.2 65 2.8 W 35 43 19 23 1019.6 1019.6 0.0
19/05:00am 10.5 3.0 4.4 66 2.7 W 33 43 18 23 1019.5 1019.5 0.0
19/04:30am 10.6 3.1 4.3 65 2.8 W 33 41 18 22 1019.5 1019.5 0.0
19/04:00am 10.8 2.8 4.0 63 3.0 WSW 35 41 19 22 1019.6 1019.6 0.0
19/03:30am 10.7 2.0 4.0 63 3.0 WSW 39 50 21 27 1019.4 1019.4 0.0
19/03:00am 10.8 2.9 4.5 65 2.8 WSW 35 43 19 23 1019.6 1019.6 0.0
19/02:30am 10.9 1.9 4.8 66 2.8 WSW 41 52 22 28 1019.7 1019.7 0.0
19/02:00am 10.9 1.3 4.6 65 2.8 WSW 44 56 24 30 1019.7 1019.7 0.0
19/01:30am 10.9 1.3 4.4 64 2.9 WSW 44 57 24 31 1019.8 1019.8 0.0
19/01:00am 11.0 1.4 4.5 64 2.9 WSW 44 56 24 30 1020.0 1020.0 0.0
19/12:30am 11.2 1.8 5.3 67 2.7 WSW 44 57 24 31 1020.1 1020.1 0.0
19/12:00am 11.3 2.2 6.0 70 2.5 WSW 43 54 23 29 1020.0 1020.0 0.0
 
Date/Time
EST
Temp
°C
App
Temp
°C
Dew
Point
Rel
Hum
%
Delta-T
°C
Wind Press
QNH
hPa
Press
MSL
hPa
Rain
since 9 am
mm
Dir
 
Spd
km/h
Gust
km/h
Spd
kts
Gust
kts
18/11:30pm 11.4 1.8 6.1 70 2.5 WSW 46 57 25 31 1020.0 1020.0 0.0
18/11:00pm 11.4 2.2 6.3 71 2.4 WSW 44 56 24 30 1019.9 1019.9 0.0
18/10:30pm 11.5 2.3 6.2 70 2.5 WSW 44 57 24 31 1020.0 1020.0 0.0
18/10:00pm 11.3 4.3 6.0 70 2.5 WSW 32 43 17 23 1020.1 1020.1 0.0
18/09:30pm 11.4 6.3 5.9 69 2.6 WSW 22 30 12 16 1020.2 1020.2 0.0
18/09:00pm 10.9 6.1 5.4 69 2.5 WSW 20 30 11 16 1020.1 1020.1 0.0
18/08:30pm 10.9 5.8 5.9 71 2.3 W 22 32 12 17 1020.2 1020.2 0.0
18/08:00pm 11.1 5.6 5.8 70 2.4 WSW 24 35 13 19 1020.0 1020.0 0.0

Other Formats:

Comma delimited format used in spreadsheet applications
http://www.bom.gov.au/fwo/IDN60801/IDN60801.94934.axf

JavaScript Object Notation format (JSON) in row-major order
http://www.bom.gov.au/fwo/IDN60801/IDN60801.94934.json